Mather, WI (54641)

11:14 PM CDT on September 02, 2015 (GMT -0500)
Water Mill | | Change Station
CLOSE
Current Station
Personal Weather Station
Location: Tomah, WI
Elevation: 950 ft
Nearby Weather Stations

Elev 950 ft 44.05 °N, 90.46 °W | Updated 53 seconds ago

Mostly Cloudy
Mostly Cloudy
73.3 °F
Feels Like 70 °F
N
0.0
Wind Variable Wind from SW
Gusts 0.0 mph

Today
High -- | Low -- °F
--% Chance of Precip.
Yesterday
High -- | Low -- °F
Precip. -- in
6:25 AM 7:35 PM
Waning Gibbous, 74% visible
Pressure 29.91 in
Visibility 10.0 miles
Clouds Few 4000 ft
Mostly Cloudy 12000 ft
Heat Index 70 °F
Dew Point 71 °F
Humidity 93%
Rainfall 0.00 in
Snow Depth Not available.
UV 0.0 out of 12
Pollen 10.00 out of 12
Air Quality Not available.
Flu Activity Not available.
METAR KVOK 030358Z 20008KT 10SM FEW040 BKN120 25/25 A2992 RMK AO2A SLP129
Pressure 29.91 in
Visibility 10.0 miles
Clouds Few 4000 ft
Mostly Cloudy 12000 ft
Heat Index 70 °F
Dew Point 71 °F
Humidity 93%
Rainfall 0.00 in
Snow Depth Not available.
UV 0.0 out of 12
Pollen 10.00 out of 12
Air Quality Not available.
Flu Activity Not available.
METAR KVOK 030358Z 20008KT 10SM FEW040 BKN120 25/25 A2992 RMK AO2A SLP129

10-Day Weather Forecast

×

Almanac

Astronomy

Sep. 02, 2015 Rise Set
Actual Time
Civil Twilight
Nautical Twilight
Astronomical Twilight
Moon
Length of Visible Light
Length of Day
Tomorrow will be .
, % of the Moon is Illuminated

Today's Extremes

State Highs State Lows

Community

WunderPhotos

Upload Photos

1,851,910 photos uploaded!

WunderBlogs® & News

Nearby

Air Quality

  Air Quality AQ Index Pollutant
Not available.

Snow Depth

Station Depth Elevation

Earthquake Activity

City Distance Mag. Time & Date
Minimum magnitude displayed is 2.5.

Coastal Water Temperatures

Place Temperature

Stations

Nearby Weather Stations

Station Location Temp. Windchill Dew Point Humidity Wind Precip. Elev Updated Type